createdAt,value
2023-01-20T00:00:41.802Z,13.97
2023-01-20T00:01:46.423Z,14.07
2023-01-20T00:02:47.832Z,13.43
2023-01-20T00:03:50.511Z,12.30
2023-01-20T00:04:52.032Z,13.17
2023-01-20T00:05:53.695Z,12.63
2023-01-20T00:06:55.121Z,12.30
2023-01-20T00:07:56.613Z,13.33
2023-01-20T00:08:59.388Z,14.83
2023-01-20T00:10:00.823Z,15.67
2023-01-20T00:11:06.948Z,16.27
2023-01-20T00:12:08.306Z,15.37
2023-01-20T00:13:09.682Z,16.00
2023-01-20T00:14:11.624Z,16.47
2023-01-20T00:15:13.158Z,16.87
2023-01-20T00:16:14.737Z,16.77
2023-01-20T00:17:16.158Z,15.90
2023-01-20T00:18:17.581Z,16.10
2023-01-20T00:19:18.933Z,17.07
2023-01-20T00:20:20.277Z,16.53
2023-01-20T00:21:21.627Z,16.53
2023-01-20T00:22:23.020Z,15.47
2023-01-20T00:23:24.671Z,14.93
2023-01-20T00:24:26.176Z,14.53
2023-01-20T00:25:27.521Z,13.87
2023-01-20T00:26:28.879Z,14.17
2023-01-20T00:27:30.250Z,13.50
2023-01-20T00:28:31.618Z,14.40
2023-01-20T00:29:33.201Z,13.90
2023-01-20T00:30:34.571Z,13.60
2023-01-20T00:31:36.243Z,13.23
2023-01-20T00:32:39.067Z,12.80
2023-01-20T00:33:40.747Z,13.10
2023-01-20T00:34:42.136Z,13.70
2023-01-20T00:35:43.480Z,14.97
2023-01-20T00:36:44.841Z,15.60
2023-01-20T00:37:46.157Z,14.60
2023-01-20T00:38:47.615Z,14.37
2023-01-20T00:39:48.988Z,14.87
2023-01-20T00:40:54.824Z,14.20
2023-01-20T00:41:56.242Z,15.17
2023-01-20T00:42:57.619Z,13.63
2023-01-20T00:43:59.149Z,13.77
2023-01-20T00:45:00.595Z,12.83
2023-01-20T00:46:02.469Z,13.70
2023-01-20T00:47:03.827Z,13.00
2023-01-20T00:48:05.303Z,12.53
2023-01-20T00:49:06.639Z,13.47
2023-01-20T00:50:08.478Z,13.80
2023-01-20T00:51:10.322Z,13.43
2023-01-20T00:52:11.727Z,13.03
2023-01-20T00:53:13.033Z,12.80
2023-01-20T00:54:14.385Z,13.07
2023-01-20T00:55:16.045Z,13.07
2023-01-20T00:56:17.461Z,12.30
2023-01-20T00:57:18.828Z,12.33
2023-01-20T00:58:20.232Z,12.37
2023-01-20T00:59:21.614Z,12.07
2023-01-20T01:00:23.017Z,12.60
2023-01-20T01:01:24.516Z,12.40
2023-01-20T01:02:25.907Z,11.67
2023-01-20T01:03:30.325Z,12.47
2023-01-20T01:04:31.655Z,12.47
2023-01-20T01:05:33.290Z,12.17
2023-01-20T01:06:34.752Z,12.17
2023-01-20T01:07:36.188Z,13.17
2023-01-20T01:08:37.548Z,12.93
2023-01-20T01:09:38.913Z,12.30
2023-01-20T01:10:40.664Z,13.07
2023-01-20T01:11:42.075Z,12.57
2023-01-20T01:12:43.519Z,12.37
2023-01-20T01:13:44.914Z,12.47
2023-01-20T01:14:46.348Z,12.27
2023-01-20T01:15:48.284Z,12.57
2023-01-20T01:16:49.606Z,13.30
2023-01-20T01:17:51.655Z,12.47
2023-01-20T01:18:54.048Z,13.43
2023-01-20T01:19:55.399Z,12.90
2023-01-20T01:20:56.961Z,12.73
2023-01-20T01:21:58.320Z,13.03
2023-01-20T01:22:59.752Z,13.20
2023-01-20T01:24:01.099Z,13.40
2023-01-20T01:25:02.552Z,13.20
2023-01-20T01:26:04.358Z,12.90
2023-01-20T01:27:05.800Z,13.17
2023-01-20T01:28:07.439Z,12.67
2023-01-20T01:29:08.797Z,12.67
2023-01-20T01:30:10.765Z,12.77
2023-01-20T01:31:12.145Z,12.83
2023-01-20T01:32:13.558Z,12.97
2023-01-20T01:33:14.866Z,12.30
2023-01-20T01:34:16.328Z,12.60
2023-01-20T01:35:17.678Z,12.80
2023-01-20T01:36:19.080Z,12.73
2023-01-20T01:37:20.410Z,12.60
2023-01-20T01:38:21.799Z,11.77
2023-01-20T01:39:23.204Z,12.43
2023-01-20T01:40:24.683Z,12.20
2023-01-20T01:41:26.134Z,11.93
2023-01-20T01:42:27.468Z,12.47
2023-01-20T01:43:35.966Z,12.50
2023-01-20T01:44:38.797Z,12.10
2023-01-20T01:45:40.267Z,12.63
2023-01-20T01:46:42.245Z,12.97
2023-01-20T01:47:49.067Z,12.83
2023-01-20T01:48:50.600Z,13.07
2023-01-20T01:49:52.219Z,13.40
2023-01-20T01:50:56.214Z,13.53
2023-01-20T01:52:05.707Z,13.43
2023-01-20T01:53:08.284Z,12.77
2023-01-20T01:54:12.791Z,13.17
2023-01-20T01:55:16.961Z,12.60
2023-01-20T01:56:18.550Z,13.10
2023-01-20T01:57:20.053Z,12.57
2023-01-20T01:58:24.813Z,12.90
2023-01-20T01:59:28.475Z,12.87
2023-01-20T02:00:29.869Z,13.40
2023-01-20T02:01:32.833Z,12.43
2023-01-20T02:02:35.988Z,13.47
2023-01-20T02:03:44.877Z,13.07
2023-01-20T02:04:46.212Z,13.37
2023-01-20T02:05:48.687Z,13.33
2023-01-20T02:06:52.158Z,14.00
2023-01-20T02:07:53.904Z,12.73
2023-01-20T02:08:55.384Z,13.43
2023-01-20T02:09:56.935Z,14.10
2023-01-20T02:10:58.366Z,12.83
2023-01-20T02:12:04.118Z,12.93
2023-01-20T02:13:05.643Z,13.90
2023-01-20T02:14:07.665Z,14.23
2023-01-20T02:15:09.397Z,13.67
2023-01-20T02:16:35.156Z,13.53
2023-01-20T02:17:57.177Z,13.83
2023-01-20T02:19:04.861Z,13.67
2023-01-20T02:20:18.607Z,13.97
2023-01-20T02:21:38.851Z,13.50
2023-01-20T02:22:46.912Z,13.30
2023-01-20T02:23:48.256Z,14.70
2023-01-20T02:25:04.995Z,13.13
2023-01-20T02:26:25.143Z,14.00
2023-01-20T02:27:45.043Z,14.47
2023-01-20T02:29:05.303Z,13.20
2023-01-20T02:30:23.493Z,13.60
2023-01-20T02:31:43.901Z,13.87
2023-01-20T02:32:49.426Z,14.03
2023-01-20T02:34:00.660Z,15.97
2023-01-20T02:35:02.030Z,15.17
2023-01-20T02:36:06.921Z,14.13
2023-01-20T02:37:16.824Z,15.13
2023-01-20T02:38:23.995Z,14.17
2023-01-20T02:39:51.563Z,14.27
2023-01-20T02:41:01.989Z,14.53
2023-01-20T02:42:10.931Z,13.63
2023-01-20T02:45:25.633Z,14.33
2023-01-20T02:46:33.188Z,14.37
2023-01-20T02:47:37.469Z,14.33
2023-01-20T02:48:44.451Z,14.23
2023-01-20T02:50:21.525Z,13.87
2023-01-20T02:51:27.884Z,14.67
2023-01-20T02:52:34.854Z,14.90
2023-01-20T02:53:48.079Z,14.57
2023-01-20T02:54:50.217Z,14.50
2023-01-20T02:55:52.781Z,14.40
2023-01-20T02:56:54.387Z,13.87
2023-01-20T02:58:03.408Z,14.10
2023-01-20T02:59:04.881Z,14.93
2023-01-20T03:00:09.306Z,15.80
2023-01-20T03:01:16.647Z,14.97
2023-01-20T03:02:20.752Z,13.97
2023-01-20T03:03:25.040Z,14.77
2023-01-20T03:04:31.624Z,15.13
2023-01-20T03:05:35.179Z,13.80
2023-01-20T03:06:38.058Z,15.10
2023-01-20T03:07:40.125Z,14.20
2023-01-20T03:08:41.554Z,15.20
2023-01-20T03:09:48.271Z,14.37
2023-01-20T03:10:50.126Z,13.70
2023-01-20T03:11:54.420Z,14.40
2023-01-20T03:12:57.833Z,14.77
2023-01-20T03:14:07.235Z,14.23
2023-01-20T03:15:09.216Z,15.17
2023-01-20T03:16:12.432Z,14.70
2023-01-20T03:17:13.844Z,14.93
2023-01-20T03:18:15.268Z,14.77
2023-01-20T03:19:19.525Z,14.90
2023-01-20T03:20:21.767Z,14.50
2023-01-20T03:21:23.258Z,13.93
2023-01-20T03:22:24.642Z,14.67
2023-01-20T03:23:28.186Z,14.83
2023-01-20T03:24:30.855Z,14.47
2023-01-20T03:25:32.328Z,14.47
2023-01-20T03:26:34.113Z,14.27
2023-01-20T03:27:35.501Z,13.93
2023-01-20T03:28:37.010Z,15.20
2023-01-20T03:29:38.351Z,14.67
2023-01-20T03:30:39.767Z,14.63
2023-01-20T03:31:52.646Z,14.77
2023-01-20T03:32:54.004Z,14.67
2023-01-20T03:33:57.047Z,15.20
2023-01-20T03:34:58.608Z,14.87
2023-01-20T03:36:00.056Z,15.57
2023-01-20T03:37:02.394Z,14.73
2023-01-20T03:38:04.046Z,15.27
2023-01-20T03:39:05.830Z,14.33
2023-01-20T03:40:07.606Z,15.17
2023-01-20T03:41:18.195Z,14.97
2023-01-20T03:42:40.244Z,14.23
2023-01-20T03:43:41.735Z,14.40
2023-01-20T03:44:51.915Z,14.80
2023-01-20T03:45:59.587Z,14.60
2023-01-20T03:47:08.603Z,14.60
2023-01-20T03:48:24.475Z,14.83
2023-01-20T03:49:35.713Z,14.60
2023-01-20T03:50:39.901Z,13.93
2023-01-20T03:51:50.339Z,15.17
2023-01-20T03:53:12.460Z,14.17
2023-01-20T03:54:17.811Z,14.07
2023-01-20T03:55:22.175Z,14.07
2023-01-20T03:56:33.235Z,14.60
2023-01-20T03:57:40.788Z,14.03
2023-01-20T03:58:44.143Z,15.57
2023-01-20T03:59:47.168Z,14.30
2023-01-20T04:00:49.777Z,13.87
2023-01-20T04:01:52.342Z,14.23
2023-01-20T04:02:54.240Z,15.17
2023-01-20T04:03:56.304Z,14.73
2023-01-20T04:04:58.216Z,15.17
2023-01-20T04:06:00.297Z,15.10
2023-01-20T04:07:03.676Z,14.97
2023-01-20T04:08:07.033Z,15.37
2023-01-20T04:09:10.384Z,15.97
2023-01-20T04:10:13.744Z,15.30
2023-01-20T04:11:15.197Z,15.47
2023-01-20T04:12:16.610Z,15.93
2023-01-20T04:13:17.954Z,16.07
2023-01-20T04:14:19.402Z,15.90
2023-01-20T04:15:21.571Z,14.93
2023-01-20T04:16:24.332Z,15.40
2023-01-20T04:17:29.079Z,15.27
2023-01-20T04:18:30.519Z,15.40
2023-01-20T04:19:31.958Z,15.77
2023-01-20T04:20:33.402Z,15.70
2023-01-20T04:21:45.922Z,15.77
2023-01-20T04:22:57.251Z,15.57
2023-01-20T04:24:07.672Z,15.40
2023-01-20T04:25:15.283Z,16.03
2023-01-20T04:26:16.910Z,15.73
2023-01-20T04:27:18.300Z,15.13
2023-01-20T04:28:19.656Z,15.70
2023-01-20T04:29:21.030Z,15.90
2023-01-20T04:30:22.528Z,15.70
2023-01-20T04:31:30.425Z,15.50
2023-01-20T04:32:32.676Z,15.40
2023-01-20T04:33:36.655Z,15.63
2023-01-20T04:34:38.485Z,15.67
2023-01-20T04:35:39.873Z,16.43
2023-01-20T04:36:41.705Z,15.57
2023-01-20T04:37:43.099Z,15.70
2023-01-20T04:38:44.554Z,16.43
2023-01-20T04:39:45.873Z,15.87
2023-01-20T04:40:47.225Z,15.20
2023-01-20T04:41:48.951Z,15.77
2023-01-20T04:42:50.328Z,15.70
2023-01-20T04:43:51.729Z,15.10
2023-01-20T04:44:53.077Z,15.40
2023-01-20T04:45:54.435Z,15.93
2023-01-20T04:46:57.292Z,16.43
2023-01-20T04:47:58.650Z,14.93
2023-01-20T04:48:59.966Z,15.27
2023-01-20T04:50:01.303Z,15.23
2023-01-20T04:51:06.339Z,14.73
2023-01-20T04:52:07.654Z,14.67
2023-01-20T04:53:13.697Z,14.97
2023-01-20T04:54:14.977Z,14.93
2023-01-20T04:55:16.627Z,14.43
2023-01-20T04:56:18.128Z,14.37
2023-01-20T04:57:19.429Z,14.23
2023-01-20T04:58:20.816Z,15.33
2023-01-20T04:59:22.170Z,14.47
2023-01-20T05:00:23.525Z,14.80
2023-01-20T05:01:25.225Z,14.70
2023-01-20T05:02:27.019Z,15.07
2023-01-20T05:03:28.520Z,15.10
2023-01-20T05:04:29.903Z,14.93
2023-01-20T05:05:31.385Z,15.83
2023-01-20T05:06:32.839Z,15.30
2023-01-20T05:07:34.353Z,14.70
2023-01-20T05:08:35.715Z,15.27
2023-01-20T05:09:37.039Z,15.27
2023-01-20T05:10:38.370Z,14.97
2023-01-20T05:11:40.021Z,15.23
2023-01-20T05:12:43.644Z,14.87
2023-01-20T05:13:45.017Z,14.67
2023-01-20T05:14:46.347Z,15.47
2023-01-20T05:15:47.726Z,15.87
2023-01-20T05:16:49.091Z,15.60
2023-01-20T05:17:50.420Z,14.90
2023-01-20T05:18:51.854Z,14.60
2023-01-20T05:19:53.201Z,14.80
2023-01-20T05:20:54.559Z,14.93
2023-01-20T05:21:55.980Z,15.47
2023-01-20T05:23:00.489Z,15.70
2023-01-20T05:24:02.744Z,14.67
2023-01-20T05:25:04.260Z,15.20
2023-01-20T05:26:05.567Z,15.30
2023-01-20T05:27:06.921Z,14.93
2023-01-20T05:28:08.355Z,16.20
2023-01-20T05:29:09.674Z,15.50
2023-01-20T05:30:11.328Z,15.50
2023-01-20T05:31:12.758Z,15.40
2023-01-20T05:32:14.141Z,16.50
2023-01-20T05:33:15.533Z,15.03
2023-01-20T05:34:16.837Z,15.60
2023-01-20T05:35:18.341Z,16.03
2023-01-20T05:36:19.721Z,15.77
2023-01-20T05:37:21.072Z,15.97
2023-01-20T05:38:22.405Z,15.97
2023-01-20T05:39:23.841Z,15.60
2023-01-20T05:40:25.241Z,14.80
2023-01-20T05:41:26.536Z,15.00
2023-01-20T05:42:27.862Z,15.57
2023-01-20T05:43:29.192Z,15.53
2023-01-20T05:44:30.597Z,14.60
2023-01-20T05:45:32.393Z,15.77
2023-01-20T05:46:33.819Z,15.40
2023-01-20T05:47:35.213Z,15.13
2023-01-20T05:48:36.662Z,15.73
2023-01-20T05:49:38.000Z,15.77
2023-01-20T05:50:39.313Z,15.77
2023-01-20T05:51:40.710Z,16.30
2023-01-20T05:52:42.003Z,15.67
2023-01-20T05:53:43.326Z,16.13
2023-01-20T05:54:44.634Z,14.83
2023-01-20T05:55:46.129Z,14.40
2023-01-20T05:56:47.807Z,14.80
2023-01-20T05:57:49.110Z,15.07
2023-01-20T05:58:53.688Z,14.83
2023-01-20T05:59:55.646Z,15.63
2023-01-20T06:01:07.294Z,16.03
2023-01-20T06:02:11.535Z,14.27
2023-01-20T06:03:12.814Z,16.40
2023-01-20T06:04:14.180Z,16.47
2023-01-20T06:05:15.947Z,15.87
2023-01-20T06:06:18.323Z,17.17
2023-01-20T06:07:19.639Z,15.33
2023-01-20T06:08:20.894Z,14.33
2023-01-20T06:09:22.270Z,15.53
2023-01-20T06:10:30.192Z,15.20
2023-01-20T06:11:31.521Z,14.20
2023-01-20T06:12:32.827Z,14.87
2023-01-20T06:13:35.375Z,16.17
2023-01-20T06:14:36.695Z,16.00
2023-01-20T06:15:37.975Z,15.57
2023-01-20T06:16:39.298Z,15.73
2023-01-20T06:17:40.623Z,16.00
2023-01-20T06:18:42.008Z,16.57
2023-01-20T06:19:43.297Z,15.67
2023-01-20T06:20:44.681Z,15.03
2023-01-20T06:21:47.042Z,15.47
2023-01-20T06:22:48.375Z,15.93
2023-01-20T06:23:49.727Z,15.33
2023-01-20T06:24:52.008Z,16.23
2023-01-20T06:26:00.173Z,15.67
2023-01-20T06:27:01.452Z,16.60
2023-01-20T06:28:02.891Z,15.77
2023-01-20T06:29:04.183Z,15.80
2023-01-20T06:30:06.064Z,16.37
2023-01-20T06:31:15.014Z,17.57
2023-01-20T06:32:16.396Z,17.50
2023-01-20T06:33:17.699Z,16.87
2023-01-20T06:34:18.992Z,16.20
2023-01-20T06:35:22.910Z,16.37
2023-01-20T06:36:24.557Z,16.47
2023-01-20T06:37:25.906Z,17.20
2023-01-20T06:38:29.336Z,17.07
2023-01-20T06:39:30.727Z,16.50
2023-01-20T06:40:32.187Z,16.37
2023-01-20T06:41:33.551Z,15.73
2023-01-20T06:42:34.957Z,16.10
2023-01-20T06:43:40.002Z,15.53
2023-01-20T06:44:41.382Z,15.73
2023-01-20T06:45:42.742Z,16.03
2023-01-20T06:46:45.246Z,16.00
2023-01-20T06:47:55.393Z,16.13
2023-01-20T06:49:00.605Z,15.67
2023-01-20T06:50:02.239Z,16.03
2023-01-20T06:51:07.526Z,15.30
2023-01-20T06:52:09.623Z,16.00
2023-01-20T06:53:11.445Z,15.87
2023-01-20T06:54:12.806Z,15.37
2023-01-20T06:55:14.496Z,16.57
2023-01-20T06:56:15.953Z,15.03
2023-01-20T06:57:17.280Z,15.43
2023-01-20T06:58:18.600Z,14.43
2023-01-20T06:59:55.363Z,15.80
2023-01-20T07:00:55.512Z,15.90
2023-01-20T07:01:57.007Z,15.67
2023-01-20T07:02:58.399Z,16.10
2023-01-20T07:03:59.791Z,15.87
2023-01-20T07:05:01.139Z,15.57
2023-01-20T07:06:13.575Z,15.73
2023-01-20T07:07:14.872Z,15.77
2023-01-20T07:08:16.208Z,15.40
2023-01-20T07:09:17.583Z,15.40
2023-01-20T07:10:18.946Z,17.23
2023-01-20T07:11:20.600Z,15.80
2023-01-20T07:12:22.023Z,15.23
2023-01-20T07:13:23.447Z,16.47
2023-01-20T07:14:24.748Z,15.37
2023-01-20T07:15:26.113Z,14.90
2023-01-20T07:16:27.512Z,15.83
2023-01-20T07:17:28.820Z,17.33
2023-01-20T07:18:30.118Z,16.63
2023-01-20T07:19:31.476Z,16.50
2023-01-20T07:20:32.825Z,16.60
2023-01-20T07:21:34.184Z,16.23
2023-01-20T07:22:35.477Z,17.13
2023-01-20T07:23:36.942Z,16.93
2023-01-20T07:24:38.258Z,17.13
2023-01-20T07:25:39.688Z,17.33
2023-01-20T07:26:41.046Z,18.00
2023-01-20T07:27:42.398Z,17.57
2023-01-20T07:28:44.199Z,17.27
2023-01-20T07:29:45.557Z,17.17
2023-01-20T07:30:46.926Z,16.10
2023-01-20T07:31:48.289Z,16.43
2023-01-20T07:32:49.661Z,16.93
2023-01-20T07:33:51.265Z,17.63
2023-01-20T07:34:52.562Z,16.80
2023-01-20T07:35:56.541Z,16.23
2023-01-20T07:36:57.920Z,17.30
2023-01-20T07:37:59.239Z,17.57
2023-01-20T07:39:00.570Z,17.87
2023-01-20T07:40:01.917Z,17.33
2023-01-20T07:41:05.372Z,17.73
2023-01-20T07:42:06.712Z,17.67
2023-01-20T07:43:07.997Z,17.40
2023-01-20T07:44:10.734Z,17.77
2023-01-20T07:45:12.204Z,17.67
2023-01-20T07:46:14.016Z,18.13
2023-01-20T07:47:15.339Z,17.30
2023-01-20T07:48:16.640Z,16.80
2023-01-20T07:49:18.003Z,17.77
2023-01-20T07:50:19.300Z,17.47
2023-01-20T07:51:20.785Z,16.87
2023-01-20T07:52:22.088Z,17.97
2023-01-20T07:53:23.411Z,17.27
2023-01-20T07:54:24.769Z,17.07
2023-01-20T07:55:26.072Z,17.13
2023-01-20T07:56:28.021Z,17.17
2023-01-20T07:57:32.315Z,17.27
2023-01-20T07:58:34.067Z,16.97
2023-01-20T07:59:35.372Z,16.43
2023-01-20T08:00:36.740Z,16.97
2023-01-20T08:01:38.139Z,17.10
2023-01-20T08:02:39.912Z,16.40
2023-01-20T08:03:41.594Z,16.77
2023-01-20T08:04:43.065Z,16.27
2023-01-20T08:05:44.434Z,16.50
2023-01-20T08:06:45.802Z,15.17
2023-01-20T08:07:50.173Z,15.83
2023-01-20T08:08:51.784Z,14.83
2023-01-20T08:09:53.429Z,15.23
2023-01-20T08:10:54.935Z,15.50
2023-01-20T08:11:56.344Z,15.80
2023-01-20T08:12:58.199Z,15.07
2023-01-20T08:13:59.622Z,15.03
2023-01-20T08:15:00.961Z,15.30
2023-01-20T08:16:03.216Z,15.30
2023-01-20T08:17:04.533Z,14.23
2023-01-20T08:18:05.881Z,14.93
2023-01-20T08:19:07.227Z,14.50
2023-01-20T08:20:09.820Z,14.63
2023-01-20T08:21:24.723Z,14.90
2023-01-20T08:22:26.150Z,14.07
2023-01-20T08:23:27.658Z,14.07
2023-01-20T08:24:29.022Z,13.90
2023-01-20T08:25:30.396Z,15.60
2023-01-20T08:26:32.478Z,14.33
2023-01-20T08:27:33.789Z,14.60
2023-01-20T08:28:35.809Z,14.87
2023-01-20T08:29:37.207Z,14.57
2023-01-20T08:30:38.585Z,15.17
2023-01-20T08:31:41.272Z,14.23
2023-01-20T08:32:42.654Z,14.80
2023-01-20T08:33:44.343Z,16.17
2023-01-20T08:34:45.682Z,15.33
2023-01-20T08:35:47.611Z,14.43
2023-01-20T08:36:49.988Z,15.07
2023-01-20T08:37:51.307Z,14.50
2023-01-20T08:38:52.672Z,15.10
2023-01-20T08:39:54.012Z,14.33
2023-01-20T08:40:55.409Z,14.63
2023-01-20T08:41:56.786Z,14.57
2023-01-20T08:42:58.216Z,13.53
2023-01-20T08:44:00.563Z,14.07
2023-01-20T08:45:02.381Z,13.90
2023-01-20T08:46:06.496Z,14.13
2023-01-20T08:47:07.917Z,14.27
2023-01-20T08:48:09.858Z,13.93
2023-01-20T08:49:15.983Z,14.27
2023-01-20T08:50:17.526Z,14.17
2023-01-20T08:51:27.711Z,13.80
2023-01-20T08:52:29.208Z,13.97
2023-01-20T08:53:30.597Z,15.13
2023-01-20T08:54:34.576Z,13.87
2023-01-20T08:55:36.336Z,14.80
2023-01-20T08:56:37.792Z,13.80
2023-01-20T08:57:39.155Z,13.70
2023-01-20T08:58:40.581Z,14.57
2023-01-20T08:59:42.423Z,13.93
2023-01-20T09:00:43.819Z,13.60
2023-01-20T09:01:45.154Z,14.47
2023-01-20T09:02:46.556Z,14.07
2023-01-20T09:04:03.703Z,15.40
2023-01-20T09:05:08.535Z,14.60
2023-01-20T09:06:10.327Z,13.70
2023-01-20T09:07:12.481Z,14.23
2023-01-20T09:08:14.174Z,14.33
2023-01-20T09:09:16.285Z,13.40
2023-01-20T09:10:17.811Z,14.03
2023-01-20T09:11:24.835Z,13.77
2023-01-20T09:12:26.172Z,14.07
2023-01-20T09:13:27.534Z,14.27
2023-01-20T09:14:28.837Z,15.07
2023-01-20T09:15:30.162Z,14.40
2023-01-20T09:16:31.475Z,14.63
2023-01-20T09:17:34.347Z,15.27
2023-01-20T09:18:35.682Z,14.33
2023-01-20T09:19:37.027Z,14.20
2023-01-20T09:20:38.331Z,16.47
2023-01-20T09:21:39.761Z,15.80
2023-01-20T09:22:41.083Z,15.60
2023-01-20T09:23:47.855Z,14.80
2023-01-20T09:24:49.136Z,13.93
2023-01-20T09:25:50.461Z,13.07
2023-01-20T09:26:52.742Z,16.80
2023-01-20T09:27:54.076Z,17.03
2023-01-20T09:28:55.362Z,20.53
2023-01-20T09:29:56.730Z,20.83
2023-01-20T09:30:58.745Z,19.53
2023-01-20T09:32:00.272Z,15.37
2023-01-20T09:33:01.655Z,14.30
2023-01-20T09:34:02.974Z,14.57
2023-01-20T09:35:04.536Z,15.67
2023-01-20T09:36:06.944Z,15.00
2023-01-20T09:37:26.744Z,14.23
2023-01-20T09:38:47.067Z,13.77
2023-01-20T09:40:07.513Z,14.23
2023-01-20T09:41:27.937Z,14.03
2023-01-20T09:42:51.724Z,13.37
2023-01-20T09:44:02.558Z,13.60
2023-01-20T09:45:24.857Z,14.13
2023-01-20T09:46:36.938Z,16.33
2023-01-20T09:47:43.405Z,17.27
2023-01-20T09:49:18.935Z,16.53
2023-01-20T09:50:49.490Z,14.20
2023-01-20T09:52:20.624Z,14.43
2023-01-20T09:53:21.917Z,13.43
2023-01-20T09:54:26.311Z,13.53
2023-01-20T09:55:46.705Z,13.57
2023-01-20T09:56:49.376Z,13.97
2023-01-20T09:57:59.056Z,13.37
2023-01-20T09:59:16.205Z,14.03
2023-01-20T10:00:22.359Z,12.83
2023-01-20T10:01:24.414Z,14.10
2023-01-20T10:02:29.398Z,13.70
2023-01-20T10:03:37.015Z,13.57
2023-01-20T10:04:41.601Z,13.50
2023-01-20T10:05:43.924Z,13.37
2023-01-20T10:07:03.040Z,12.57
2023-01-20T10:08:10.979Z,13.30
2023-01-20T10:09:27.933Z,15.10
2023-01-20T10:10:31.997Z,14.77
2023-01-20T10:11:37.019Z,14.30
2023-01-20T10:12:41.999Z,13.53
2023-01-20T10:13:51.424Z,13.53
2023-01-20T10:14:58.365Z,13.10
2023-01-20T10:16:01.601Z,13.03
2023-01-20T10:17:22.184Z,12.90
2023-01-20T10:18:35.425Z,12.23
2023-01-20T10:19:50.038Z,12.13
2023-01-20T10:20:56.719Z,13.17
2023-01-20T10:22:10.055Z,11.80
2023-01-20T10:23:21.135Z,12.03
2023-01-20T10:24:33.867Z,11.63
2023-01-20T10:25:43.998Z,12.57
2023-01-20T10:27:00.464Z,12.37
2023-01-20T10:28:12.125Z,11.37
2023-01-20T10:29:17.963Z,11.27
2023-01-20T10:30:19.976Z,11.63
2023-01-20T10:31:23.710Z,11.80
2023-01-20T10:32:33.233Z,11.53
2023-01-20T10:33:39.536Z,11.23
2023-01-20T10:34:44.177Z,11.60
2023-01-20T10:35:47.405Z,10.50
2023-01-20T10:36:56.457Z,11.30
2023-01-20T10:37:58.928Z,10.10
2023-01-20T10:39:26.488Z,10.67
2023-01-20T10:40:46.557Z,10.70
2023-01-20T10:41:55.035Z,10.93
2023-01-20T10:42:58.535Z,12.10
2023-01-20T10:44:00.440Z,13.13
2023-01-20T10:45:01.788Z,12.57
2023-01-20T10:46:21.993Z,12.93
2023-01-20T10:47:43.962Z,11.60
2023-01-20T10:48:45.262Z,10.50
2023-01-20T10:50:05.193Z,10.23
2023-01-20T10:51:11.553Z,11.10
2023-01-20T10:52:22.129Z,10.97
2023-01-20T10:53:23.465Z,11.00
2023-01-20T10:54:43.672Z,11.10
2023-01-20T10:56:00.796Z,10.20
2023-01-20T10:57:03.918Z,10.13
2023-01-20T10:58:13.619Z,10.13
2023-01-20T10:59:20.529Z,10.27
2023-01-20T11:00:24.480Z,9.63
2023-01-20T11:01:25.902Z,8.93
2023-01-20T11:02:35.012Z,9.03
2023-01-20T11:03:39.393Z,9.03
2023-01-20T11:04:41.169Z,9.17
2023-01-20T11:05:43.064Z,9.80
2023-01-20T11:06:45.419Z,8.77
2023-01-20T11:07:47.705Z,11.87
2023-01-20T11:08:49.410Z,12.83
2023-01-20T11:09:50.788Z,10.83
2023-01-20T11:10:56.629Z,10.07
2023-01-20T11:11:58.452Z,9.43
2023-01-20T11:13:01.118Z,8.60
2023-01-20T11:14:03.791Z,8.30
2023-01-20T11:15:11.297Z,8.47
2023-01-20T11:16:28.785Z,8.50
2023-01-20T11:17:30.237Z,8.80
2023-01-20T11:18:32.019Z,9.50
2023-01-20T11:19:46.057Z,8.20
2023-01-20T11:20:48.478Z,8.27
2023-01-20T11:21:49.997Z,9.00
2023-01-20T11:22:51.356Z,9.23
2023-01-20T11:23:55.616Z,8.53
2023-01-20T11:25:01.332Z,10.07
2023-01-20T11:26:10.731Z,9.27
2023-01-20T11:27:20.311Z,8.83
2023-01-20T11:28:22.556Z,9.00
2023-01-20T11:29:28.577Z,9.00
2023-01-20T11:30:32.185Z,10.30
2023-01-20T11:31:36.757Z,9.73
2023-01-20T11:32:40.023Z,9.13
2023-01-20T11:33:53.846Z,9.07
2023-01-20T11:34:55.936Z,9.37
2023-01-20T11:35:57.657Z,9.20
2023-01-20T11:37:05.108Z,9.10
2023-01-20T11:38:26.136Z,9.77
2023-01-20T11:39:42.017Z,9.53
2023-01-20T11:40:51.219Z,10.50
2023-01-20T11:42:28.142Z,10.07
2023-01-20T11:43:36.281Z,9.97
2023-01-20T11:44:50.432Z,10.10
2023-01-20T11:45:52.223Z,10.10
2023-01-20T11:46:53.639Z,10.20
2023-01-20T11:48:06.749Z,10.70
2023-01-20T11:49:24.240Z,9.90
2023-01-20T11:50:36.000Z,9.70
2023-01-20T11:51:44.010Z,9.77
2023-01-20T11:52:47.233Z,9.83
2023-01-20T11:53:48.694Z,10.03
2023-01-20T11:55:06.829Z,11.17
2023-01-20T11:56:19.560Z,9.93
2023-01-20T11:57:20.909Z,10.27
2023-01-20T11:58:24.598Z,9.70
2023-01-20T11:59:27.748Z,9.80
2023-01-20T12:00:31.948Z,9.83
2023-01-20T12:01:49.932Z,9.97
2023-01-20T12:03:17.323Z,9.53
2023-01-20T12:04:23.283Z,9.80
2023-01-20T12:05:39.186Z,10.67
2023-01-20T12:06:49.035Z,9.67
2023-01-20T12:07:52.161Z,9.70
2023-01-20T12:09:02.285Z,10.03
2023-01-20T12:10:11.862Z,10.20
2023-01-20T12:11:14.606Z,9.63
2023-01-20T12:12:34.788Z,10.23
2023-01-20T12:13:58.510Z,9.87
2023-01-20T12:15:11.641Z,10.50
2023-01-20T12:16:13.077Z,9.80
2023-01-20T12:17:20.863Z,9.40
2023-01-20T12:18:29.273Z,9.47
2023-01-20T12:19:37.259Z,9.50
2023-01-20T12:20:58.877Z,9.57
2023-01-20T12:22:03.167Z,8.63
2023-01-20T12:23:10.473Z,9.47
2023-01-20T12:24:11.894Z,8.93
2023-01-20T12:25:19.881Z,9.93
2023-01-20T12:26:22.665Z,9.60
2023-01-20T12:27:27.113Z,9.47
2023-01-20T12:28:49.054Z,9.37
2023-01-20T12:29:51.771Z,9.03
2023-01-20T12:31:00.304Z,8.97
2023-01-20T12:32:01.871Z,9.00
2023-01-20T12:33:03.322Z,9.93
2023-01-20T12:34:15.121Z,9.13
2023-01-20T12:35:16.555Z,9.73
2023-01-20T12:36:24.793Z,9.30
2023-01-20T12:37:33.419Z,9.33
2023-01-20T12:38:41.351Z,9.03
2023-01-20T12:40:01.370Z,8.67
2023-01-20T12:41:07.147Z,9.03
2023-01-20T12:42:24.163Z,8.67
2023-01-20T12:43:54.552Z,9.00
2023-01-20T12:45:08.733Z,8.33
2023-01-20T12:46:10.110Z,8.50
2023-01-20T12:47:26.815Z,8.73
2023-01-20T12:48:46.394Z,8.30
2023-01-20T12:50:06.452Z,8.17
2023-01-20T12:51:11.776Z,7.77
2023-01-20T12:52:19.992Z,7.27
2023-01-20T12:53:30.262Z,7.63
2023-01-20T12:54:48.008Z,8.30
2023-01-20T12:56:08.864Z,7.80
2023-01-20T12:57:19.288Z,7.30
2023-01-20T12:58:30.795Z,7.20
2023-01-20T12:59:32.071Z,6.67
2023-01-20T13:00:36.654Z,6.40
2023-01-20T13:01:49.380Z,6.90
2023-01-20T13:03:03.054Z,6.80
2023-01-20T13:04:23.032Z,6.80
2023-01-20T13:05:30.186Z,7.20
2023-01-20T13:06:31.932Z,7.07
2023-01-20T13:07:52.567Z,7.00
2023-01-20T13:09:15.347Z,6.77
2023-01-20T13:10:19.802Z,7.17
2023-01-20T13:11:30.446Z,7.00
2023-01-20T13:12:31.802Z,6.90
2023-01-20T13:13:33.330Z,7.03
2023-01-20T13:14:43.017Z,6.93
2023-01-20T13:15:46.346Z,6.73
2023-01-20T13:16:56.283Z,7.67
2023-01-20T13:18:13.929Z,7.47
2023-01-20T13:19:16.445Z,6.53
2023-01-20T13:20:22.945Z,7.30
2023-01-20T13:21:24.260Z,7.30
2023-01-20T13:22:25.723Z,7.60
2023-01-20T13:23:28.564Z,6.80
2023-01-20T13:24:30.040Z,7.87
2023-01-20T13:25:32.484Z,8.10
2023-01-20T13:26:35.884Z,7.80
2023-01-20T13:27:38.087Z,7.93
2023-01-20T13:28:49.762Z,7.60
2023-01-20T13:29:51.243Z,8.30
2023-01-20T13:30:54.586Z,9.43
2023-01-20T13:31:56.386Z,9.10
2023-01-20T13:33:13.173Z,9.40
2023-01-20T13:34:33.281Z,11.33
2023-01-20T13:35:40.945Z,10.23
2023-01-20T13:37:02.287Z,9.17
2023-01-20T13:38:03.618Z,9.10
2023-01-20T13:39:39.719Z,9.70
2023-01-20T13:40:58.570Z,9.03
2023-01-20T13:41:59.927Z,9.53
2023-01-20T13:43:01.688Z,9.57
2023-01-20T13:44:22.953Z,10.43
2023-01-20T13:45:25.761Z,9.27
2023-01-20T13:46:35.996Z,9.20
2023-01-20T13:48:00.106Z,11.57
2023-01-20T13:49:19.883Z,9.77
2023-01-20T13:50:30.297Z,9.17
2023-01-20T13:51:37.733Z,9.23
2023-01-20T13:52:52.058Z,9.93
2023-01-20T13:53:53.495Z,8.97
2023-01-20T13:54:56.874Z,9.30
2023-01-20T13:55:59.488Z,8.47
2023-01-20T13:57:24.133Z,8.53
2023-01-20T13:58:34.535Z,7.83
2023-01-20T13:59:37.350Z,8.23
2023-01-20T14:00:38.734Z,8.27
2023-01-20T14:01:40.149Z,8.17
2023-01-20T14:02:41.830Z,7.70
2023-01-20T14:03:43.543Z,7.90
2023-01-20T14:04:47.104Z,8.43